createdAt,value
2019-02-22T00:02:06.412Z,94.20
2019-02-22T00:04:34.462Z,94.30
2019-02-22T00:07:02.430Z,94.50
2019-02-22T00:09:30.408Z,94.60
2019-02-22T00:11:58.339Z,94.60
2019-02-22T00:14:26.268Z,94.80
2019-02-22T00:16:54.140Z,95.00
2019-02-22T00:19:22.042Z,95.20
2019-02-22T00:21:50.008Z,95.30
2019-02-22T00:24:17.993Z,95.40
2019-02-22T00:26:46.029Z,95.50
2019-02-22T00:29:14.010Z,95.70
2019-02-22T00:31:41.918Z,95.70
2019-02-22T00:34:10.320Z,95.90
2019-02-22T00:36:38.588Z,96.10
2019-02-22T00:39:07.047Z,96.20
2019-02-22T00:41:35.562Z,96.30
2019-02-22T00:44:03.875Z,96.30
2019-02-22T00:46:32.210Z,96.30
2019-02-22T00:49:00.341Z,96.50
2019-02-22T00:51:28.954Z,96.50
2019-02-22T00:53:57.604Z,96.70
2019-02-22T00:56:25.943Z,96.70
2019-02-22T00:58:54.402Z,96.90
2019-02-22T01:01:22.574Z,97.30
2019-02-22T01:03:50.647Z,97.20
2019-02-22T01:06:18.965Z,97.30
2019-02-22T01:08:47.469Z,97.30
2019-02-22T01:11:16.011Z,97.30
2019-02-22T01:13:44.022Z,97.40
2019-02-22T01:16:12.800Z,97.50
2019-02-22T01:18:41.359Z,97.60
2019-02-22T01:21:10.001Z,97.70
2019-02-22T01:23:38.380Z,97.70
2019-02-22T01:26:06.606Z,97.80
2019-02-22T01:28:35.046Z,97.80
2019-02-22T01:31:03.198Z,97.90
2019-02-22T01:33:31.598Z,98.10
2019-02-22T01:35:59.702Z,98.20
2019-02-22T01:38:27.846Z,98.30
2019-02-22T01:40:55.922Z,98.50
2019-02-22T01:43:24.330Z,98.50
2019-02-22T01:45:52.509Z,98.50
2019-02-22T01:48:20.526Z,98.60
2019-02-22T01:50:48.475Z,98.70
2019-02-22T01:53:16.779Z,98.80
2019-02-22T01:55:45.255Z,98.80
2019-02-22T01:58:13.399Z,98.90
2019-02-22T02:00:41.717Z,98.80
2019-02-22T02:03:10.123Z,99.00
2019-02-22T02:05:38.401Z,99.20
2019-02-22T02:08:06.772Z,99.30
2019-02-22T02:10:34.783Z,99.30
2019-02-22T02:13:02.756Z,99.40
2019-02-22T02:15:30.938Z,99.40
2019-02-22T02:17:58.765Z,99.30
2019-02-22T02:20:26.709Z,99.20
2019-02-22T02:22:54.623Z,99.30
2019-02-22T02:25:23.166Z,99.40
2019-02-22T02:27:51.094Z,99.70
2019-02-22T02:30:19.004Z,99.80
2019-02-22T02:32:46.834Z,99.80
2019-02-22T02:35:14.758Z,99.70
2019-02-22T02:37:43.123Z,99.60
2019-02-22T02:40:11.282Z,99.50
2019-02-22T02:42:39.159Z,99.70
2019-02-22T02:45:07.651Z,99.80
2019-02-22T02:47:35.675Z,99.90
2019-02-22T02:50:03.957Z,99.90
2019-02-22T02:52:31.967Z,99.90
2019-02-22T02:54:59.861Z,99.90
2019-02-22T02:57:27.991Z,99.90
2019-02-22T02:59:55.888Z,99.90
2019-02-22T03:02:28.574Z,99.90
2019-02-22T03:04:56.748Z,99.90
2019-02-22T03:07:41.753Z,99.90
2019-02-22T03:10:09.910Z,99.90
2019-02-22T03:12:37.914Z,99.90
2019-02-22T03:15:07.127Z,99.90
2019-02-22T03:17:35.378Z,99.90
2019-02-22T03:20:04.140Z,99.90
2019-02-22T03:22:32.004Z,99.90
2019-02-22T03:24:59.907Z,99.90
2019-02-22T03:27:28.188Z,99.90
2019-02-22T03:29:56.130Z,99.90
2019-02-22T03:32:24.215Z,99.90
2019-02-22T03:34:52.226Z,99.90
2019-02-22T03:37:21.899Z,99.90
2019-02-22T03:39:50.296Z,99.90
2019-02-22T03:42:19.939Z,99.90
2019-02-22T03:44:48.151Z,99.90
2019-02-22T03:47:16.057Z,99.90
2019-02-22T03:49:43.982Z,99.90
2019-02-22T03:52:43.842Z,99.90
2019-02-22T03:55:12.063Z,99.90
2019-02-22T03:57:40.129Z,99.90
2019-02-22T04:00:08.324Z,99.90
2019-02-22T04:02:36.359Z,99.90
2019-02-22T04:05:04.908Z,99.90
2019-02-22T04:07:32.766Z,99.90
2019-02-22T04:10:00.790Z,99.90
2019-02-22T04:12:28.991Z,99.90
2019-02-22T04:14:56.915Z,99.90
2019-02-22T04:17:24.864Z,99.90
2019-02-22T04:19:52.946Z,99.90
2019-02-22T04:22:22.103Z,99.90
2019-02-22T04:24:50.114Z,99.90
2019-02-22T04:27:17.999Z,99.90
2019-02-22T04:29:45.877Z,99.90
2019-02-22T04:32:13.825Z,99.90
2019-02-22T04:34:41.754Z,99.90
2019-02-22T04:37:09.638Z,99.90
2019-02-22T04:39:37.711Z,99.90
2019-02-22T04:42:05.705Z,99.90
2019-02-22T04:44:33.840Z,99.90
2019-02-22T04:47:01.878Z,99.90
2019-02-22T04:49:29.744Z,99.90
2019-02-22T04:51:57.670Z,99.90
2019-02-22T04:54:25.597Z,99.90
2019-02-22T04:56:53.567Z,99.90
2019-02-22T04:59:21.766Z,99.90
2019-02-22T05:01:49.833Z,99.90
2019-02-22T05:04:17.748Z,99.90
2019-02-22T05:06:45.725Z,99.90
2019-02-22T05:09:13.638Z,99.50
2019-02-22T05:11:41.521Z,99.30
2019-02-22T05:14:09.414Z,98.90
2019-02-22T05:16:37.547Z,98.70
2019-02-22T05:19:05.443Z,98.70
2019-02-22T05:21:33.389Z,98.90
2019-02-22T05:24:01.391Z,98.90
2019-02-22T05:26:29.358Z,99.20
2019-02-22T05:28:57.681Z,98.80
2019-02-22T05:31:25.640Z,98.80
2019-02-22T05:33:53.538Z,98.70
2019-02-22T05:36:21.932Z,98.70
2019-02-22T05:38:49.919Z,98.60
2019-02-22T05:41:17.852Z,98.60
2019-02-22T05:43:45.724Z,98.60
2019-02-22T05:46:14.183Z,98.60
2019-02-22T05:48:42.083Z,98.40
2019-02-22T05:51:10.082Z,98.40
2019-02-22T05:53:38.105Z,98.50
2019-02-22T05:56:06.412Z,98.50
2019-02-22T05:58:34.314Z,98.70
2019-02-22T06:01:02.151Z,98.60
2019-02-22T06:03:30.119Z,98.60
2019-02-22T06:05:58.329Z,98.40
2019-02-22T06:08:26.480Z,98.30
2019-02-22T06:10:54.587Z,98.20
2019-02-22T06:13:22.463Z,98.30
2019-02-22T06:15:50.460Z,98.50
2019-02-22T06:18:18.425Z,98.50
2019-02-22T06:20:46.703Z,98.40
2019-02-22T06:23:14.655Z,98.80
2019-02-22T06:25:42.611Z,98.80
2019-02-22T06:28:10.645Z,98.60
2019-02-22T06:30:38.571Z,98.90
2019-02-22T06:33:06.472Z,99.40
2019-02-22T06:35:34.343Z,99.10
2019-02-22T06:38:02.352Z,99.10
2019-02-22T06:40:30.253Z,99.30
2019-02-22T06:42:58.306Z,99.40
2019-02-22T06:45:26.213Z,99.10
2019-02-22T06:47:54.240Z,98.90
2019-02-22T06:50:33.160Z,99.00
2019-02-22T06:52:51.877Z,99.60
2019-02-22T06:55:19.875Z,99.90
2019-02-22T06:57:47.784Z,99.90
2019-02-22T07:00:15.673Z,99.90
2019-02-22T07:02:43.618Z,99.90
2019-02-22T07:05:11.533Z,99.90
2019-02-22T07:07:39.550Z,99.90
2019-02-22T07:10:08.266Z,99.90
2019-02-22T07:12:42.145Z,99.90
2019-02-22T07:15:10.246Z,99.90
2019-02-22T07:17:38.260Z,99.90
2019-02-22T07:20:07.935Z,99.90
2019-02-22T07:22:35.924Z,99.90
2019-02-22T07:25:04.422Z,99.90
2019-02-22T07:27:32.324Z,99.90
2019-02-22T07:30:00.340Z,99.90
2019-02-22T07:32:28.479Z,99.90
2019-02-22T07:35:15.951Z,99.90
2019-02-22T07:37:44.030Z,99.90
2019-02-22T07:40:12.287Z,99.90
2019-02-22T07:42:40.584Z,99.90
2019-02-22T07:45:10.157Z,99.90
2019-02-22T07:47:38.167Z,99.90
2019-02-22T07:50:08.011Z,99.90
2019-02-22T07:52:35.936Z,99.90
2019-02-22T07:55:03.855Z,99.90
2019-02-22T07:57:31.812Z,99.90
2019-02-22T07:59:59.622Z,99.90
2019-02-22T08:02:27.519Z,99.90
2019-02-22T08:04:55.366Z,99.90
2019-02-22T08:07:23.255Z,99.90
2019-02-22T08:09:51.171Z,99.90
2019-02-22T08:12:20.591Z,99.90
2019-02-22T08:14:48.512Z,99.60
2019-02-22T08:17:16.475Z,99.40
2019-02-22T08:19:44.509Z,99.40
2019-02-22T08:22:12.468Z,99.10
2019-02-22T08:24:40.475Z,99.20
2019-02-22T08:27:08.371Z,99.10
2019-02-22T08:29:38.273Z,98.90
2019-02-22T08:32:06.281Z,98.80
2019-02-22T08:34:34.178Z,98.20
2019-02-22T08:37:02.310Z,98.10
2019-02-22T08:39:30.227Z,97.70
2019-02-22T08:41:58.230Z,97.70
2019-02-22T08:44:26.087Z,97.70
2019-02-22T08:46:54.054Z,98.00
2019-02-22T08:49:22.007Z,98.00
2019-02-22T08:51:49.999Z,97.70
2019-02-22T08:54:17.910Z,97.60
2019-02-22T08:56:45.851Z,97.20
2019-02-22T08:59:13.778Z,97.20
2019-02-22T09:01:41.885Z,96.80
2019-02-22T09:04:09.819Z,96.70
2019-02-22T09:06:37.767Z,96.90
2019-02-22T09:09:06.078Z,96.70
2019-02-22T09:11:33.937Z,96.80
2019-02-22T09:14:13.890Z,96.60
2019-02-22T09:16:41.832Z,96.80
2019-02-22T09:19:09.677Z,96.20
2019-02-22T09:21:37.604Z,95.90
2019-02-22T09:24:05.485Z,95.60
2019-02-22T09:26:33.479Z,95.60
2019-02-22T09:29:01.322Z,95.30
2019-02-22T09:31:29.221Z,94.80
2019-02-22T09:33:57.116Z,94.60
2019-02-22T09:36:25.558Z,93.80
2019-02-22T09:38:53.775Z,93.30
2019-02-22T09:41:21.762Z,93.00
2019-02-22T09:43:54.993Z,92.90
2019-02-22T09:46:19.410Z,92.70
2019-02-22T09:48:47.383Z,92.30
2019-02-22T09:51:15.237Z,92.20
2019-02-22T09:53:43.131Z,91.70
2019-02-22T09:56:11.450Z,91.60
2019-02-22T09:58:39.704Z,91.60
2019-02-22T10:01:07.651Z,90.10
2019-02-22T10:03:35.676Z,90.00
2019-02-22T10:06:03.667Z,90.80
2019-02-22T10:08:31.630Z,90.50
2019-02-22T10:10:59.529Z,89.30
2019-02-22T10:13:37.173Z,88.60
2019-02-22T10:16:05.012Z,88.00
2019-02-22T10:18:32.939Z,87.00
2019-02-22T10:21:01.046Z,87.50
2019-02-22T10:23:28.891Z,87.60
2019-02-22T10:25:56.734Z,86.50
2019-02-22T10:28:24.808Z,83.80
2019-02-22T10:30:52.903Z,84.50
2019-02-22T10:33:21.015Z,83.50
2019-02-22T10:35:48.891Z,83.10
2019-02-22T10:38:16.771Z,83.70
2019-02-22T10:40:44.666Z,81.30
2019-02-22T10:43:12.615Z,83.60
2019-02-22T10:45:40.677Z,82.00
2019-02-22T10:48:08.590Z,82.40
2019-02-22T10:50:36.487Z,81.10
2019-02-22T10:53:04.421Z,80.60
2019-02-22T10:55:32.595Z,80.20
2019-02-22T10:58:00.566Z,80.80
2019-02-22T11:00:28.751Z,80.40
2019-02-22T11:02:56.867Z,79.80
2019-02-22T11:05:24.718Z,77.90
2019-02-22T11:07:52.674Z,77.00
2019-02-22T11:10:20.810Z,77.80
2019-02-22T11:12:48.829Z,78.50
2019-02-22T11:15:16.773Z,78.40
2019-02-22T11:17:44.698Z,80.00
2019-02-22T11:20:12.554Z,78.90
2019-02-22T11:22:40.864Z,76.80
2019-02-22T11:25:09.991Z,74.50
2019-02-22T11:27:37.949Z,72.50
2019-02-22T11:30:07.670Z,71.90
2019-02-22T11:32:35.599Z,74.10
2019-02-22T11:35:03.933Z,74.80
2019-02-22T11:37:31.899Z,72.20
2019-02-22T11:39:59.807Z,70.70
2019-02-22T11:42:27.776Z,70.40
2019-02-22T11:44:55.986Z,69.70
2019-02-22T11:47:23.962Z,70.00
2019-02-22T11:49:51.870Z,66.90
2019-02-22T11:52:20.930Z,68.70
2019-02-22T11:54:48.859Z,70.10
2019-02-22T11:57:19.480Z,68.90
2019-02-22T11:59:47.466Z,68.50
2019-02-22T12:02:15.591Z,67.20
2019-02-22T12:04:43.782Z,67.10
2019-02-22T12:07:11.706Z,65.30
2019-02-22T12:09:40.410Z,66.00
2019-02-22T12:12:08.294Z,64.60
2019-02-22T12:14:52.147Z,65.50
2019-02-22T12:17:19.027Z,64.70
2019-02-22T12:19:47.279Z,65.60
2019-02-22T12:22:15.263Z,63.60
2019-02-22T12:24:43.229Z,63.20
2019-02-22T12:27:11.135Z,61.90
2019-02-22T12:29:39.335Z,63.30
2019-02-22T12:32:07.350Z,62.40
2019-02-22T12:34:35.367Z,60.90
2019-02-22T12:37:03.508Z,61.00
2019-02-22T12:39:31.560Z,60.20
2019-02-22T12:41:59.419Z,60.70
2019-02-22T12:44:27.345Z,60.50
2019-02-22T12:46:55.311Z,61.20
2019-02-22T12:49:23.217Z,60.40
2019-02-22T12:51:51.275Z,60.00
2019-02-22T12:54:19.102Z,59.50
2019-02-22T12:56:56.546Z,59.80
2019-02-22T12:59:16.856Z,60.90
2019-02-22T13:01:45.039Z,60.10
2019-02-22T13:04:13.006Z,59.10
2019-02-22T13:06:40.867Z,58.50
2019-02-22T13:09:09.718Z,58.10
2019-02-22T13:11:37.647Z,57.80
2019-02-22T13:14:44.649Z,57.90
2019-02-22T13:17:11.107Z,58.30
2019-02-22T13:19:39.300Z,59.30
2019-02-22T13:22:07.299Z,58.00
2019-02-22T13:24:35.578Z,57.70
2019-02-22T13:27:03.571Z,58.00
2019-02-22T13:29:31.583Z,57.10
2019-02-22T13:31:59.502Z,57.60
2019-02-22T13:34:27.391Z,57.20
2019-02-22T13:36:55.529Z,58.40
2019-02-22T13:39:23.848Z,57.50
2019-02-22T13:42:04.495Z,57.10
2019-02-22T13:44:32.728Z,56.70
2019-02-22T13:47:01.168Z,56.10
2019-02-22T13:49:29.123Z,55.60
2019-02-22T13:51:57.007Z,56.20
2019-02-22T13:54:24.986Z,56.20
2019-02-22T13:56:52.919Z,55.70
2019-02-22T13:59:20.958Z,55.90
2019-02-22T14:01:49.095Z,56.00
2019-02-22T14:04:17.099Z,54.80
2019-02-22T14:06:45.073Z,56.10
2019-02-22T14:09:13.110Z,54.30
2019-02-22T14:11:41.175Z,55.00
2019-02-22T14:14:40.307Z,54.90
2019-02-22T14:17:07.749Z,56.10
2019-02-22T14:19:35.947Z,54.80
2019-02-22T14:22:03.780Z,54.30
2019-02-22T14:24:31.699Z,54.60
2019-02-22T14:26:59.510Z,55.20
2019-02-22T14:29:27.579Z,55.00
2019-02-22T14:31:55.579Z,54.50
2019-02-22T14:34:23.755Z,55.20
2019-02-22T14:36:51.650Z,55.70
2019-02-22T14:39:19.565Z,55.80
2019-02-22T14:41:47.492Z,55.80
2019-02-22T14:44:15.486Z,56.70
2019-02-22T14:46:43.316Z,55.90
2019-02-22T14:49:11.207Z,55.90
2019-02-22T14:51:39.094Z,55.50
2019-02-22T14:54:07.047Z,55.50
2019-02-22T14:56:40.656Z,55.10
2019-02-22T14:59:08.693Z,55.30
2019-02-22T15:01:36.580Z,55.40
2019-02-22T15:04:04.601Z,55.50
2019-02-22T15:06:32.617Z,54.90
2019-02-22T15:09:00.650Z,54.50
2019-02-22T15:11:31.070Z,55.80
2019-02-22T15:14:25.527Z,55.60
2019-02-22T15:17:00.791Z,55.20
2019-02-22T15:19:28.839Z,55.70
2019-02-22T15:21:56.795Z,55.80
2019-02-22T15:24:24.723Z,56.30
2019-02-22T15:26:54.081Z,56.70
2019-02-22T15:29:22.122Z,56.50
2019-02-22T15:31:50.119Z,56.20
2019-02-22T15:34:18.011Z,56.50
2019-02-22T15:36:45.999Z,57.00
2019-02-22T15:39:13.939Z,57.00
2019-02-22T15:41:41.914Z,57.20
2019-02-22T15:44:09.833Z,57.10
2019-02-22T15:46:37.781Z,57.60
2019-02-22T15:49:05.735Z,57.50
2019-02-22T15:51:33.556Z,57.40
2019-02-22T15:54:01.531Z,57.80
2019-02-22T15:56:29.519Z,57.70
2019-02-22T15:58:57.465Z,57.50
2019-02-22T16:01:25.355Z,57.80
2019-02-22T16:03:59.083Z,58.30
2019-02-22T16:06:26.984Z,59.10
2019-02-22T16:08:54.903Z,59.10
2019-02-22T16:11:22.847Z,59.60
2019-02-22T16:14:07.290Z,60.00
2019-02-22T16:16:35.275Z,60.70
2019-02-22T16:19:03.210Z,60.80
2019-02-22T16:21:31.214Z,61.10
2019-02-22T16:23:59.386Z,61.90
2019-02-22T16:26:29.515Z,62.30
2019-02-22T16:28:57.874Z,62.40
2019-02-22T16:31:25.733Z,62.60
2019-02-22T16:33:53.679Z,63.10
2019-02-22T16:36:21.716Z,62.90
2019-02-22T16:38:49.725Z,63.20
2019-02-22T16:41:17.575Z,63.50
2019-02-22T16:43:45.682Z,64.70
2019-02-22T16:46:13.645Z,65.40
2019-02-22T16:48:41.668Z,65.90
2019-02-22T16:51:09.578Z,66.10
2019-02-22T16:53:37.542Z,66.60
2019-02-22T16:56:05.448Z,66.70
2019-02-22T16:58:33.369Z,67.00
2019-02-22T17:01:01.252Z,67.30
2019-02-22T17:03:29.114Z,67.80
2019-02-22T17:05:57.547Z,67.80
2019-02-22T17:08:25.398Z,67.80
2019-02-22T17:10:53.716Z,68.30
2019-02-22T17:13:21.710Z,68.40
2019-02-22T17:15:53.762Z,68.40
2019-02-22T17:18:21.711Z,68.20
2019-02-22T17:20:49.592Z,68.20
2019-02-22T17:23:17.872Z,68.70
2019-02-22T17:25:46.229Z,68.90
2019-02-22T17:28:14.060Z,68.90
2019-02-22T17:30:41.965Z,69.00
2019-02-22T17:33:09.807Z,68.80
2019-02-22T17:35:37.793Z,69.00
2019-02-22T17:38:05.903Z,69.00
2019-02-22T17:40:33.813Z,68.90
2019-02-22T17:43:01.682Z,68.90
2019-02-22T17:45:30.126Z,68.70
2019-02-22T17:47:57.961Z,68.60
2019-02-22T17:50:26.083Z,68.80
2019-02-22T17:52:54.086Z,68.80
2019-02-22T17:55:22.066Z,69.10
2019-02-22T17:57:50.600Z,69.30
2019-02-22T18:00:20.654Z,69.10
2019-02-22T18:02:49.163Z,69.30
2019-02-22T18:05:17.105Z,69.20
2019-02-22T18:07:45.170Z,69.00
2019-02-22T18:10:13.329Z,68.40
2019-02-22T18:12:41.243Z,68.20
2019-02-22T18:15:30.096Z,68.40
2019-02-22T18:17:58.148Z,68.60
2019-02-22T18:20:26.305Z,68.60
2019-02-22T18:22:54.338Z,68.40
2019-02-22T18:25:22.315Z,68.10
2019-02-22T18:27:51.679Z,67.70
2019-02-22T18:30:19.621Z,67.90
2019-02-22T18:32:47.519Z,68.40
2019-02-22T18:35:15.582Z,68.00
2019-02-22T18:37:44.107Z,68.20
2019-02-22T18:40:12.613Z,68.00
2019-02-22T18:42:40.598Z,68.00
2019-02-22T18:45:08.716Z,68.00
2019-02-22T18:47:36.966Z,67.80
2019-02-22T18:50:05.943Z,68.10
2019-02-22T18:52:33.951Z,67.90
2019-02-22T18:55:01.954Z,68.00
2019-02-22T18:57:30.007Z,67.80
2019-02-22T18:59:58.201Z,67.60
2019-02-22T19:02:26.122Z,66.60
2019-02-22T19:04:54.200Z,66.60
2019-02-22T19:07:23.614Z,66.60
2019-02-22T19:09:51.627Z,67.00
2019-02-22T19:12:19.661Z,66.80
2019-02-22T19:15:32.469Z,66.40
2019-02-22T19:17:58.453Z,66.40
2019-02-22T19:20:26.634Z,66.20
2019-02-22T19:22:54.766Z,66.50
2019-02-22T19:25:22.934Z,66.60
2019-02-22T19:27:51.038Z,66.70
2019-02-22T19:30:19.078Z,67.10
2019-02-22T19:32:47.130Z,67.50
2019-02-22T19:35:16.194Z,67.80
2019-02-22T19:37:44.290Z,67.20
2019-02-22T19:40:14.325Z,67.30
2019-02-22T19:42:42.463Z,67.30
2019-02-22T19:45:10.705Z,67.40
2019-02-22T19:47:41.926Z,67.20
2019-02-22T19:50:10.400Z,67.10
2019-02-22T19:52:38.330Z,67.20
2019-02-22T19:55:07.979Z,66.00
2019-02-22T19:57:35.888Z,65.40
2019-02-22T20:00:04.726Z,65.30
2019-02-22T20:02:32.969Z,64.70
2019-02-22T20:05:01.669Z,64.40
2019-02-22T20:07:29.824Z,64.40
2019-02-22T20:09:58.517Z,64.10
2019-02-22T20:12:29.169Z,64.40
2019-02-22T20:15:36.632Z,63.50
2019-02-22T20:18:05.299Z,63.00
2019-02-22T20:20:37.338Z,62.90
2019-02-22T20:23:10.449Z,63.00
2019-02-22T20:25:42.599Z,62.80
2019-02-22T20:28:14.504Z,62.90
2019-02-22T20:30:46.303Z,62.90
2019-02-22T20:33:18.565Z,62.40
2019-02-22T20:35:46.683Z,62.10
2019-02-22T20:38:18.592Z,62.10
2019-02-22T20:40:50.928Z,61.90
2019-02-22T20:43:22.590Z,62.10
2019-02-22T20:45:55.026Z,61.90
2019-02-22T20:48:26.901Z,62.00
2019-02-22T20:50:59.224Z,62.30
2019-02-22T20:53:31.041Z,61.70
2019-02-22T20:55:59.240Z,61.80
2019-02-22T20:58:30.591Z,62.00
2019-02-22T21:01:02.109Z,62.10
2019-02-22T21:03:34.149Z,61.80
2019-02-22T21:06:05.921Z,61.80
2019-02-22T21:08:34.246Z,61.80
2019-02-22T21:11:05.977Z,62.20
2019-02-22T21:13:48.254Z,61.70
2019-02-22T21:16:20.781Z,61.70
2019-02-22T21:18:48.915Z,62.50
2019-02-22T21:21:16.851Z,60.90
2019-02-22T21:23:44.927Z,61.50
2019-02-22T21:26:40.291Z,61.60
2019-02-22T21:29:08.243Z,61.70
2019-02-22T21:31:36.195Z,62.10
2019-02-22T21:34:04.150Z,62.30
2019-02-22T21:36:32.125Z,62.20
2019-02-22T21:39:00.122Z,62.00
2019-02-22T21:41:27.974Z,61.60
2019-02-22T21:43:55.927Z,62.30
2019-02-22T21:46:23.869Z,62.10
2019-02-22T21:48:52.199Z,61.50
2019-02-22T21:51:20.039Z,61.80
2019-02-22T21:53:48.177Z,62.30
2019-02-22T21:56:28.522Z,62.60
2019-02-22T21:58:56.474Z,62.50
2019-02-22T22:01:24.362Z,62.30
2019-02-22T22:03:52.279Z,62.40
2019-02-22T22:06:20.878Z,62.40
2019-02-22T22:08:48.811Z,62.60
2019-02-22T22:11:16.687Z,62.80
2019-02-22T22:14:06.919Z,62.50
2019-02-22T22:16:34.791Z,63.20
2019-02-22T22:19:02.720Z,63.70
2019-02-22T22:21:30.587Z,63.80
2019-02-22T22:23:58.541Z,63.70
2019-02-22T22:26:26.494Z,64.10
2019-02-22T22:28:55.071Z,64.20
2019-02-22T22:31:22.993Z,64.60
2019-02-22T22:33:51.029Z,64.60
2019-02-22T22:36:18.919Z,64.70
2019-02-22T22:38:47.330Z,64.80
2019-02-22T22:41:15.247Z,65.00
2019-02-22T22:43:43.263Z,65.20
2019-02-22T22:46:11.347Z,65.00
2019-02-22T22:48:49.869Z,65.00
2019-02-22T22:51:09.274Z,65.20
2019-02-22T22:53:37.391Z,65.50
2019-02-22T22:56:05.330Z,65.20
2019-02-22T22:58:33.202Z,65.50
2019-02-22T23:01:06.071Z,65.50
2019-02-22T23:03:35.058Z,65.40
2019-02-22T23:06:03.243Z,65.60
2019-02-22T23:08:31.176Z,65.60
2019-02-22T23:10:59.219Z,65.80
2019-02-22T23:13:27.070Z,65.70
2019-02-22T23:15:55.110Z,66.30
2019-02-22T23:18:23.042Z,65.80
2019-02-22T23:20:51.015Z,65.70
2019-02-22T23:23:19.103Z,65.90
2019-02-22T23:25:47.052Z,66.10
2019-02-22T23:28:15.035Z,66.20
2019-02-22T23:30:43.004Z,66.90
2019-02-22T23:33:10.959Z,66.30
2019-02-22T23:35:38.877Z,66.50
2019-02-22T23:38:07.243Z,67.10
2019-02-22T23:40:35.220Z,67.20
2019-02-22T23:43:03.123Z,67.30
2019-02-22T23:45:31.234Z,67.40
2019-02-22T23:47:59.250Z,67.50
2019-02-22T23:50:27.278Z,67.30
2019-02-22T23:52:55.294Z,67.30
2019-02-22T23:55:23.188Z,67.70
2019-02-22T23:57:51.118Z,68.00
